Time;durP1;ratioP1;P1;durP2;ratioP2;P2;SDS_P1;SDS_P2;PMS_P1;PMS_P2;Temp;Humidity;BMP_temperature;BMP_pressure;BME280_temperature;BME280_humidity;BME280_pressure;Samples;Min_cycle;Max_cycle;Signal;HPM_P1;HPM_P2
2021/07/02 00:02:15;;;;;;;14.15;8.25;;;;;;;;;;10317874;28;20044;-66
2021/07/02 00:07:12;;;;;;;13.17;8.07;;;;;;;;;;10308609;28;20037;-65
2021/07/02 00:12:09;;;;;;;13.03;7.33;;;;;;;;;;10327885;28;20037;-67
2021/07/02 00:17:07;;;;;;;14.20;7.87;;;;;;;;;;10322838;28;20036;-62
2021/07/02 00:22:04;;;;;;;15.70;8.00;;;;;;;;;;10326457;28;20041;-63
2021/07/02 00:27:02;;;;;;;15.67;8.73;;;;;;;;;;10323497;28;20039;-62
2021/07/02 00:32:00;;;;;;;14.80;8.65;;;;;;;;;;10319928;28;20120;-65
2021/07/02 00:36:57;;;;;;;15.03;9.23;;;;;;;;;;10319936;28;20029;-61
2021/07/02 00:41:54;;;;;;;14.33;8.90;;;;;;;;;;10329190;28;20443;-65
2021/07/02 00:46:52;;;;;;;13.43;9.10;;;;;;;;;;10318360;28;20419;-64
2021/07/02 00:51:50;;;;;;;15.40;9.02;;;;;;;;;;10323941;28;20079;-64
2021/07/02 00:56:47;;;;;;;13.30;9.53;;;;;;;;;;10318294;28;20032;-62
2021/07/02 01:01:45;;;;;;;11.30;8.67;;;;;;;;;;10312179;28;20038;-63
2021/07/02 01:06:44;;;;;;;15.63;8.73;;;;;;;;;;10333792;28;20042;-61
2021/07/02 01:11:41;;;;;;;13.10;9.45;;;;;;;;;;10313556;28;20048;-62
2021/07/02 01:16:40;;;;;;;18.88;9.43;;;;;;;;;;10322081;28;20029;-63
2021/07/02 01:21:38;;;;;;;;;;;;;;;;;;10345739;28;20040;-65
2021/07/02 01:26:36;;;;;;;12.07;8.57;;;;;;;;;;10318042;28;19913;-63
2021/07/02 01:31:33;;;;;;;13.80;9.83;;;;;;;;;;10318333;28;20037;-64
2021/07/02 01:36:31;;;;;;;12.73;9.37;;;;;;;;;;10312999;28;20156;-65
2021/07/02 01:41:34;;;;;;;13.68;9.40;;;;;;;;;;10332790;28;20037;-64
2021/07/02 01:46:33;;;;;;;14.18;9.52;;;;;;;;;;10308812;28;20072;-64
2021/07/02 01:51:32;;;;;;;12.32;8.85;;;;;;;;;;10323183;28;20037;-65
2021/07/02 01:56:30;;;;;;;11.87;8.97;;;;;;;;;;10322730;28;20044;-63
2021/07/02 02:01:27;;;;;;;14.03;9.63;;;;;;;;;;10309807;28;20473;-65
2021/07/02 02:06:25;;;;;;;13.50;9.85;;;;;;;;;;10321928;28;20160;-65
2021/07/02 02:11:25;;;;;;;13.48;9.32;;;;;;;;;;10316080;28;20116;-64
2021/07/02 02:16:28;;;;;;;13.98;8.90;;;;;;;;;;10323060;28;20380;-64
2021/07/02 02:21:30;;;;;;;18.48;10.20;;;;;;;;;;10322014;28;20025;-62
2021/07/02 02:26:28;;;;;;;15.75;10.32;;;;;;;;;;10325924;28;20041;-60
2021/07/02 02:31:25;;;;;;;14.10;9.90;;;;;;;;;;10325353;28;20051;-60
2021/07/02 02:36:29;;;;;;;16.73;9.82;;;;;;;;;;10340715;28;20034;-64
2021/07/02 02:41:27;;;;;;;15.25;10.02;;;;;;;;;;10342717;28;20036;-63
2021/07/02 02:46:25;;;;;;;17.37;10.57;;;;;;;;;;10333935;28;20033;-64
2021/07/02 02:51:23;;;;;;;15.00;9.52;;;;;;;;;;10323031;28;21015;-65
2021/07/02 02:56:20;;;;;;;13.03;9.00;;;;;;;;;;10316695;28;20025;-65
2021/07/02 03:01:18;;;;;;;16.20;9.73;;;;;;;;;;10327613;28;20033;-68
2021/07/02 03:06:16;;;;;;;;;;;;;;;;;;10330285;28;20234;-67
2021/07/02 03:11:16;;;;;;;12.97;9.10;;;;;;;;;;10334723;28;20599;-65
2021/07/02 03:16:15;;;;;;;15.80;10.27;;;;;;;;;;10329756;28;20623;-65
2021/07/02 03:21:18;;;;;;;19.92;10.52;;;;;;;;;;10326750;28;20033;-67
2021/07/02 03:26:16;;;;;;;16.07;10.00;;;;;;;;;;10319577;28;20029;-65
2021/07/02 03:31:14;;;;;;;13.20;9.43;;;;;;;;;;10327363;28;20037;-65
2021/07/02 03:36:11;;;;;;;16.70;10.20;;;;;;;;;;10309799;28;20051;-65
2021/07/02 03:41:09;;;;;;;13.93;9.90;;;;;;;;;;10326461;28;20047;-68
2021/07/02 03:46:08;;;;;;;10.80;8.38;;;;;;;;;;10312657;28;20078;-65
2021/07/02 03:51:06;;;;;;;16.52;9.65;;;;;;;;;;10321219;28;20056;-65
2021/07/02 03:56:03;;;;;;;14.30;8.93;;;;;;;;;;10323847;28;20172;-64
2021/07/02 04:01:01;;;;;;;17.73;9.83;;;;;;;;;;10314965;28;20037;-65
2021/07/02 04:05:59;;;;;;;14.70;9.57;;;;;;;;;;10327512;28;20033;-65
2021/07/02 04:10:56;;;;;;;16.70;10.18;;;;;;;;;;10326621;28;20487;-64
2021/07/02 04:15:54;;;;;;;16.73;11.20;;;;;;;;;;10331156;28;20052;-63
2021/07/02 04:20:51;;;;;;;16.60;10.83;;;;;;;;;;10324931;28;20033;-64
2021/07/02 04:25:49;;;;;;;14.10;10.00;;;;;;;;;;10333315;28;20056;-61
2021/07/02 04:30:46;;;;;;;16.57;10.70;;;;;;;;;;10335891;28;20036;-64
2021/07/02 04:35:43;;;;;;;14.57;9.67;;;;;;;;;;10319607;28;20032;-65
2021/07/02 04:40:41;;;;;;;12.97;9.00;;;;;;;;;;10301771;28;20041;-67
2021/07/02 04:45:38;;;;;;;13.43;9.80;;;;;;;;;;10238083;28;20142;-68
2021/07/02 04:50:36;;;;;;;13.57;9.40;;;;;;;;;;10229383;28;20041;-67
2021/07/02 04:55:34;;;;;;;13.23;9.40;;;;;;;;;;10221530;28;20127;-68
2021/07/02 05:00:31;;;;;;;14.10;10.03;;;;;;;;;;10224278;28;20045;-66
2021/07/02 05:05:29;;;;;;;14.00;9.40;;;;;;;;;;10223563;28;20176;-68
2021/07/02 05:10:26;;;;;;;12.10;9.27;;;;;;;;;;10230126;28;20048;-67
2021/07/02 05:15:24;;;;;;;13.80;9.33;;;;;;;;;;10226936;28;20124;-68
2021/07/02 05:20:21;;;;;;;13.17;9.33;;;;;;;;;;10230456;28;20045;-67
2021/07/02 05:25:19;;;;;;;13.37;8.20;;;;;;;;;;10221782;28;20037;-68
2021/07/02 05:30:17;;;;;;;14.15;9.73;;;;;;;;;;10217744;28;20079;-68
2021/07/02 05:35:14;;;;;;;11.53;8.40;;;;;;;;;;10227107;28;20029;-70
2021/07/02 05:40:13;;;;;;;15.23;9.20;;;;;;;;;;10224695;28;20071;-70
2021/07/02 05:45:11;;;;;;;13.85;8.55;;;;;;;;;;10246152;28;20080;-72
2021/07/02 05:50:09;;;;;;;15.10;8.63;;;;;;;;;;10234998;28;20045;-69
2021/07/02 05:55:07;;;;;;;13.03;9.20;;;;;;;;;;10258621;28;20029;-71
2021/07/02 06:00:05;;;;;;;13.20;8.68;;;;;;;;;;10229548;28;20037;-70
2021/07/02 06:05:04;;;;;;;12.30;8.93;;;;;;;;;;10237486;28;20670;-71
2021/07/02 06:10:01;;;;;;;12.32;8.18;;;;;;;;;;10233154;28;20231;-71
2021/07/02 06:14:59;;;;;;;13.57;9.20;;;;;;;;;;10240455;28;20029;-73
2021/07/02 06:19:56;;;;;;;13.87;8.83;;;;;;;;;;10227420;28;20070;-72
2021/07/02 06:24:54;;;;;;;12.30;8.47;;;;;;;;;;10235059;28;20047;-70
2021/07/02 06:29:51;;;;;;;14.50;8.80;;;;;;;;;;10244487;28;20140;-71
2021/07/02 06:34:49;;;;;;;12.83;7.63;;;;;;;;;;10243822;28;20723;-69
2021/07/02 06:39:47;;;;;;;13.57;7.90;;;;;;;;;;10240720;28;20663;-71
2021/07/02 06:44:45;;;;;;;12.13;8.27;;;;;;;;;;10214025;28;20094;-67
2021/07/02 06:49:43;;;;;;;13.47;8.13;;;;;;;;;;10211195;28;20168;-69
2021/07/02 06:54:40;;;;;;;10.90;7.07;;;;;;;;;;10227686;28;20568;-69
2021/07/02 06:59:38;;;;;;;11.47;8.07;;;;;;;;;;10203397;28;20054;-65
2021/07/02 07:04:35;;;;;;;10.90;8.20;;;;;;;;;;10233820;28;20044;-69
2021/07/02 07:09:34;;;;;;;11.77;7.73;;;;;;;;;;10226233;28;20045;-65
2021/07/02 07:14:31;;;;;;;;;;;;;;;;;;10226220;28;20147;-65
2021/07/02 07:19:29;;;;;;;12.80;7.80;;;;;;;;;;10238320;28;19920;-66
2021/07/02 07:24:27;;;;;;;12.27;8.27;;;;;;;;;;10233587;28;20284;-65
2021/07/02 07:29:24;;;;;;;13.40;8.23;;;;;;;;;;10226328;28;20091;-68
2021/07/02 07:35:13;;;;;;;30.60;12.82;;;;;;;;;;10231477;28;20115;-65
2021/07/02 07:39:43;;;;;;;22.67;10.20;;;;;;;;;;10214082;28;20055;-69
2021/07/02 07:44:40;;;;;;;16.30;8.90;;;;;;;;;;10229116;28;20507;-65
2021/07/02 07:49:38;;;;;;;17.15;9.43;;;;;;;;;;10231750;28;20033;-69
2021/07/02 07:54:36;;;;;;;16.08;9.27;;;;;;;;;;10244977;28;20060;-65
2021/07/02 07:59:34;;;;;;;16.55;10.07;;;;;;;;;;10238157;28;20044;-65
2021/07/02 08:04:32;;;;;;;14.90;9.98;;;;;;;;;;10238359;28;20048;-67
2021/07/02 08:09:30;;;;;;;13.03;9.93;;;;;;;;;;10227207;28;20483;-70
2021/07/02 08:14:27;;;;;;;14.75;10.00;;;;;;;;;;10218323;28;20274;-70
2021/07/02 08:19:25;;;;;;;13.23;8.57;;;;;;;;;;10298414;28;20039;-64
2021/07/02 08:24:22;;;;;;;13.57;8.07;;;;;;;;;;10301431;28;20579;-64
2021/07/02 08:29:23;;;;;;;17.90;9.75;;;;;;;;;;10321253;28;20040;-66
2021/07/02 08:34:21;;;;;;;12.23;8.63;;;;;;;;;;10316427;28;20709;-65
2021/07/02 08:39:18;;;;;;;16.60;8.77;;;;;;;;;;10308219;28;20148;-66
2021/07/02 08:44:15;;;;;;;;;;;;;;;;;;10300792;28;20780;-64
2021/07/02 08:49:13;;;;;;;13.68;8.73;;;;;;;;;;10316094;28;19917;-67
2021/07/02 08:54:19;;;;;;;;;;;;;;;;;;10316823;28;20098;-64
2021/07/02 08:59:17;;;;;;;13.38;8.68;;;;;;;;;;10310050;28;20400;-68
2021/07/02 09:04:14;;;;;;;11.85;8.68;;;;;;;;;;10307210;28;20495;-64
2021/07/02 09:09:12;;;;;;;12.40;8.80;;;;;;;;;;10309084;28;20040;-66
2021/07/02 09:14:21;;;;;;;9.73;8.13;;;;;;;;;;10309974;28;20033;-65
2021/07/02 09:19:23;;;;;;;13.95;7.78;;;;;;;;;;10306058;28;20052;-64
2021/07/02 09:24:41;;;;;;;9.63;7.30;;;;;;;;;;10298822;28;20047;-64
2021/07/02 09:29:38;;;;;;;8.20;6.90;;;;;;;;;;10304437;28;20502;-64
2021/07/02 09:35:05;;;;;;;10.93;7.20;;;;;;;;;;10305880;28;20049;-66
2021/07/02 09:40:29;;;;;;;8.43;6.82;;;;;;;;;;10293320;28;20644;-67
2021/07/02 09:45:27;;;;;;;8.73;6.95;;;;;;;;;;10307368;28;20037;-66
2021/07/02 09:50:28;;;;;;;9.05;7.15;;;;;;;;;;10308820;28;20759;-69
2021/07/02 09:55:29;;;;;;;7.78;6.65;;;;;;;;;;10307726;28;20029;-64
2021/07/02 10:00:27;;;;;;;6.50;5.78;;;;;;;;;;10293254;28;20523;-69
2021/07/02 10:05:25;;;;;;;7.18;6.47;;;;;;;;;;10296396;28;20145;-65
2021/07/02 10:10:23;;;;;;;7.60;6.32;;;;;;;;;;10309517;28;20510;-66
2021/07/02 10:15:21;;;;;;;6.88;6.18;;;;;;;;;;10287198;28;20037;-66
2021/07/02 10:20:19;;;;;;;8.23;6.03;;;;;;;;;;10300914;28;20033;-65
2021/07/02 10:25:18;;;;;;;8.38;6.63;;;;;;;;;;10300596;28;20033;-69
2021/07/02 10:30:16;;;;;;;7.68;6.88;;;;;;;;;;10301883;28;20037;-64
2021/07/02 10:35:14;;;;;;;6.45;5.47;;;;;;;;;;10310359;28;20037;-64
2021/07/02 10:40:21;;;;;;;8.23;6.05;;;;;;;;;;10317315;28;20037;-67
2021/07/02 10:45:18;;;;;;;10.40;6.32;;;;;;;;;;10318924;28;20042;-72
2021/07/02 10:50:33;;;;;;;6.53;5.75;;;;;;;;;;10319298;28;20103;-67
2021/07/02 10:55:31;;;;;;;6.38;5.40;;;;;;;;;;10311138;28;20047;-65
2021/07/02 11:00:28;;;;;;;9.13;6.13;;;;;;;;;;10316612;28;20407;-65
2021/07/02 11:05:27;;;;;;;7.10;5.50;;;;;;;;;;10310318;28;20088;-70
2021/07/02 11:10:24;;;;;;;5.60;4.72;;;;;;;;;;10315559;28;20037;-65
2021/07/02 11:15:22;;;;;;;10.07;5.20;;;;;;;;;;10300459;28;20301;-64
2021/07/02 11:20:22;;;;;;;9.10;5.60;;;;;;;;;;10303891;28;20029;-66
2021/07/02 11:25:32;;;;;;;10.05;5.47;;;;;;;;;;10303965;28;20049;-72
2021/07/02 11:35:32;;;;;;;7.75;4.53;;;;;;;;;;10309272;28;20115;-65
2021/07/02 11:40:34;;;;;;;7.35;5.00;;;;;;;;;;10303413;28;20038;-69
2021/07/02 11:45:37;;;;;;;6.82;5.05;;;;;;;;;;10305698;28;20113;-64
2021/07/02 11:50:39;;;;;;;8.93;5.07;;;;;;;;;;10308714;28;20049;-68
2021/07/02 11:55:36;;;;;;;6.85;4.65;;;;;;;;;;10304177;28;20052;-64
2021/07/02 12:00:34;;;;;;;4.43;4.00;;;;;;;;;;10296551;28;20549;-66
2021/07/02 12:05:32;;;;;;;7.68;4.72;;;;;;;;;;10315843;28;20060;-65
2021/07/02 12:10:29;;;;;;;9.80;4.90;;;;;;;;;;10313432;28;20036;-67
2021/07/02 12:15:27;;;;;;;5.80;4.30;;;;;;;;;;10318720;28;20040;-68
2021/07/02 12:20:24;;;;;;;6.20;4.20;;;;;;;;;;10301534;28;20276;-65
2021/07/02 12:25:22;;;;;;;7.50;4.33;;;;;;;;;;10314043;28;20384;-64
2021/07/02 12:30:19;;;;;;;7.38;4.30;;;;;;;;;;10311027;28;20044;-65
2021/07/02 12:35:16;;;;;;;7.10;4.20;;;;;;;;;;10316466;28;20053;-65
2021/07/02 12:40:14;;;;;;;7.70;4.40;;;;;;;;;;10313401;28;20045;-65
2021/07/02 12:45:13;;;;;;;4.43;3.53;;;;;;;;;;10309313;28;20794;-65
2021/07/02 12:50:12;;;;;;;5.82;3.72;;;;;;;;;;10303139;28;20471;-67
2021/07/02 12:55:15;;;;;;;5.38;3.75;;;;;;;;;;10321403;28;20048;-67
2021/07/02 13:00:14;;;;;;;5.93;3.55;;;;;;;;;;10328701;28;20513;-66
2021/07/02 13:05:18;;;;;;;4.97;3.45;;;;;;;;;;10332095;28;20033;-65
2021/07/02 13:10:16;;;;;;;7.05;4.05;;;;;;;;;;10306538;28;20079;-66
2021/07/02 13:15:15;;;;;;;5.45;4.47;;;;;;;;;;10321713;28;20021;-64
2021/07/02 13:20:15;;;;;;;5.53;4.32;;;;;;;;;;10320439;28;20036;-65
2021/07/02 13:25:12;;;;;;;7.32;3.92;;;;;;;;;;10311904;28;20124;-65
2021/07/02 13:30:10;;;;;;;7.67;3.70;;;;;;;;;;10317720;28;20033;-65
2021/07/02 13:35:20;;;;;;;6.10;4.22;;;;;;;;;;10320540;28;20279;-64
2021/07/02 13:40:34;;;;;;;6.00;4.00;;;;;;;;;;10324925;28;20049;-73
2021/07/02 13:45:32;;;;;;;4.72;3.40;;;;;;;;;;10307114;28;20143;-64
2021/07/02 13:50:29;;;;;;;6.25;3.97;;;;;;;;;;10312038;28;20030;-72
2021/07/02 13:55:27;;;;;;;4.40;3.83;;;;;;;;;;10318771;28;20060;-65
2021/07/02 14:00:24;;;;;;;5.27;3.60;;;;;;;;;;10322322;28;20036;-66
2021/07/02 14:05:21;;;;;;;3.73;2.87;;;;;;;;;;10319429;28;20068;-65
2021/07/02 14:10:19;;;;;;;3.55;3.22;;;;;;;;;;10309864;28;20033;-63
2021/07/02 14:15:16;;;;;;;4.18;3.20;;;;;;;;;;10326322;28;20121;-64
2021/07/02 14:20:14;;;;;;;4.27;3.20;;;;;;;;;;10322681;28;20094;-66
2021/07/02 14:25:13;;;;;;;5.22;3.25;;;;;;;;;;10324181;28;20288;-65
2021/07/02 14:30:11;;;;;;;3.83;3.10;;;;;;;;;;10316549;28;20033;-64
2021/07/02 14:35:09;;;;;;;6.28;3.30;;;;;;;;;;10326963;28;20021;-68
2021/07/02 14:40:07;;;;;;;3.83;3.42;;;;;;;;;;10326414;28;20041;-64
2021/07/02 14:45:05;;;;;;;6.60;3.30;;;;;;;;;;10312579;28;20045;-64
2021/07/02 14:50:06;;;;;;;3.72;2.65;;;;;;;;;;10314593;28;20415;-64
2021/07/02 14:55:04;;;;;;;3.47;3.15;;;;;;;;;;10325619;28;20486;-63
2021/07/02 15:00:03;;;;;;;3.83;2.63;;;;;;;;;;10326938;28;20051;-65
2021/07/02 15:05:01;;;;;;;2.80;2.22;;;;;;;;;;10313571;28;20087;-64
2021/07/02 15:09:58;;;;;;;3.70;2.80;;;;;;;;;;10324970;28;20124;-67
2021/07/02 15:14:55;;;;;;;4.63;2.60;;;;;;;;;;10319875;28;20029;-64
2021/07/02 15:19:53;;;;;;;5.17;2.80;;;;;;;;;;10329932;28;20526;-64
2021/07/02 15:24:50;;;;;;;4.70;2.83;;;;;;;;;;10318394;28;20482;-64
2021/07/02 15:30:06;;;;;;;4.70;2.85;;;;;;;;;;10322700;28;20029;-63
2021/07/02 15:35:04;;;;;;;4.60;2.83;;;;;;;;;;10318567;28;20124;-64
2021/07/02 15:40:01;;;;;;;4.95;2.80;;;;;;;;;;10309885;28;20057;-65
2021/07/02 15:44:59;;;;;;;3.30;2.47;;;;;;;;;;10306843;28;20620;-68
2021/07/02 15:49:56;;;;;;;3.27;2.50;;;;;;;;;;10331827;28;20037;-63
2021/07/02 15:54:54;;;;;;;5.20;2.60;;;;;;;;;;10327607;28;20034;-64
2021/07/02 15:59:51;;;;;;;4.70;2.67;;;;;;;;;;10324676;28;20495;-65
2021/07/02 16:04:48;;;;;;;3.03;2.37;;;;;;;;;;10324029;28;20083;-62
2021/07/02 16:09:46;;;;;;;3.38;2.63;;;;;;;;;;10305353;28;20505;-62
2021/07/02 16:14:43;;;;;;;3.87;2.40;;;;;;;;;;10320723;28;20094;-63
2021/07/02 16:19:41;;;;;;;3.47;2.70;;;;;;;;;;10326165;28;20336;-63
2021/07/02 16:24:38;;;;;;;4.30;2.80;;;;;;;;;;10325743;28;20668;-64
2021/07/02 16:29:36;;;;;;;5.10;2.93;;;;;;;;;;10328349;28;20048;-64
2021/07/02 16:34:33;;;;;;;3.40;2.70;;;;;;;;;;10329570;28;20275;-65
2021/07/02 16:39:30;;;;;;;5.20;2.70;;;;;;;;;;10313099;28;20294;-65
2021/07/02 16:44:28;;;;;;;3.53;2.43;;;;;;;;;;10308210;28;20037;-64
2021/07/02 16:49:27;;;;;;;5.47;3.10;;;;;;;;;;10316191;28;20808;-64
2021/07/02 16:54:25;;;;;;;4.50;2.85;;;;;;;;;;10320302;28;20041;-64
2021/07/02 16:59:23;;;;;;;4.50;2.90;;;;;;;;;;10319336;28;20041;-65
2021/07/02 17:04:20;;;;;;;5.72;3.17;;;;;;;;;;10321359;28;20033;-63
2021/07/02 17:09:18;;;;;;;4.28;2.80;;;;;;;;;;10318692;28;20441;-65
2021/07/02 17:14:16;;;;;;;5.45;2.70;;;;;;;;;;10320360;28;20157;-67
2021/07/02 17:19:13;;;;;;;5.07;2.60;;;;;;;;;;10318622;28;20391;-62
2021/07/02 17:24:11;;;;;;;6.18;3.05;;;;;;;;;;10307317;28;20214;-63
2021/07/02 17:29:08;;;;;;;5.45;2.78;;;;;;;;;;10314106;28;20033;-62
2021/07/02 17:34:06;;;;;;;6.28;3.53;;;;;;;;;;10326131;28;20033;-63
2021/07/02 17:39:04;;;;;;;5.47;3.00;;;;;;;;;;10325443;28;20127;-63
2021/07/02 17:44:02;;;;;;;4.25;2.55;;;;;;;;;;10321513;28;20053;-64
2021/07/02 17:49:00;;;;;;;6.03;2.50;;;;;;;;;;10328609;28;20056;-63
2021/07/02 17:53:58;;;;;;;6.10;2.65;;;;;;;;;;10338374;28;20076;-63
2021/07/02 17:58:55;;;;;;;5.45;3.03;;;;;;;;;;10319120;28;20040;-64
2021/07/02 18:03:53;;;;;;;5.60;3.05;;;;;;;;;;10316656;28;20124;-63
2021/07/02 18:08:50;;;;;;;4.53;2.40;;;;;;;;;;10323781;28;20032;-63
2021/07/02 18:13:48;;;;;;;5.00;2.60;;;;;;;;;;10321891;28;20116;-64
2021/07/02 18:18:45;;;;;;;6.43;3.35;;;;;;;;;;10326270;28;20099;-65
2021/07/02 18:23:43;;;;;;;5.28;2.80;;;;;;;;;;10309743;28;20055;-64
2021/07/02 18:28:41;;;;;;;4.03;2.90;;;;;;;;;;10323224;28;20610;-67
2021/07/02 18:33:39;;;;;;;4.82;2.67;;;;;;;;;;10321670;28;20088;-65
2021/07/02 18:38:38;;;;;;;4.50;2.95;;;;;;;;;;10319443;28;20076;-63
2021/07/02 18:43:35;;;;;;;5.57;3.22;;;;;;;;;;10300334;28;20036;-64
2021/07/02 18:48:33;;;;;;;5.13;2.90;;;;;;;;;;10313697;28;20037;-64
2021/07/02 18:53:30;;;;;;;5.18;2.50;;;;;;;;;;10337208;28;20033;-65
2021/07/02 18:58:28;;;;;;;6.90;3.33;;;;;;;;;;10310333;28;20033;-64
2021/07/02 19:03:25;;;;;;;6.72;3.03;;;;;;;;;;10315643;28;20272;-66
2021/07/02 19:08:22;;;;;;;8.40;3.30;;;;;;;;;;10332018;28;20048;-65
2021/07/02 19:13:20;;;;;;;7.17;3.20;;;;;;;;;;10325673;28;20069;-63
2021/07/02 19:18:17;;;;;;;5.20;3.30;;;;;;;;;;10330795;28;20354;-63
2021/07/02 19:23:15;;;;;;;4.20;2.90;;;;;;;;;;10320545;28;20106;-62
2021/07/02 19:28:12;;;;;;;6.28;3.25;;;;;;;;;;10301614;28;20067;-61
2021/07/02 19:33:10;;;;;;;5.10;2.85;;;;;;;;;;10328764;28;20037;-65
2021/07/02 19:38:08;;;;;;;6.43;3.63;;;;;;;;;;10321089;28;20033;-63
2021/07/02 19:43:05;;;;;;;6.18;2.90;;;;;;;;;;10327863;28;20033;-63
2021/07/02 19:48:02;;;;;;;4.50;2.90;;;;;;;;;;10318019;28;20033;-66
2021/07/02 19:53:00;;;;;;;;;;;;;;;;;;10327913;28;20890;-63
2021/07/02 19:57:57;;;;;;;;;;;;;;;;;;10322040;28;19913;-63
2021/07/02 20:02:54;;;;;;;;;;;;;;;;;;10328043;28;19935;-63
2021/07/02 20:07:52;;;;;;;;;;;;;;;;;;10320527;28;19963;-67
2021/07/02 20:12:49;;;;;;;;;;;;;;;;;;10329676;28;20412;-63
2021/07/02 20:17:48;;;;;;;;;;;;;;;;;;10310510;28;19913;-63
2021/07/02 20:22:45;;;;;;;;;;;;;;;;;;10312990;28;20402;-63
2021/07/02 20:27:43;;;;;;;;;;;;;;;;;;10318548;28;19916;-64
2021/07/02 20:32:40;;;;;;;;;;;;;;;;;;10317251;28;19921;-63
2021/07/02 20:37:42;;;;;;;;;;;;;;;;;;10316547;28;19921;-63
2021/07/02 20:42:39;;;;;;;;;;;;;;;;;;10313205;28;20325;-65
2021/07/02 20:47:36;;;;;;;;;;;;;;;;;;10320098;28;19936;-63
2021/07/02 20:52:34;;;;;;;;;;;;;;;;;;10309599;28;19966;-66
2021/07/02 20:57:31;;;;;;;;;;;;;;;;;;10304396;28;19920;-64
2021/07/02 21:02:28;;;;;;;;;;;;;;;;;;10320484;28;20293;-65
2021/07/02 21:07:26;;;;;;;;;;;;;;;;;;10306366;28;20012;-65
2021/07/02 21:12:23;;;;;;;;;;;;;;;;;;10315464;28;20390;-64
2021/07/02 21:17:20;;;;;;;;;;;;;;;;;;10309921;28;19919;-63
2021/07/02 21:22:18;;;;;;;;;;;;;;;;;;10309876;28;19917;-64
2021/07/02 21:27:15;;;;;;;;;;;;;;;;;;10314946;28;19912;-63
2021/07/02 21:32:15;;;;;;;;;;;;;;;;;;10295329;28;19925;-63
2021/07/02 21:37:12;;;;;;;;;;;;;;;;;;10296519;28;19966;-65
2021/07/02 21:42:10;;;;;;;;;;;;;;;;;;10297916;28;20290;-62
2021/07/02 21:47:07;;;;;;;;;;;;;;;;;;10284254;28;19913;-66
2021/07/02 21:52:04;;;;;;;;;;;;;;;;;;10322708;28;20419;-62
2021/07/02 21:57:02;;;;;;;;;;;;;;;;;;10306952;28;19913;-64
2021/07/02 22:01:59;;;;;;;;;;;;;;;;;;10308917;28;19971;-62
2021/07/02 22:06:56;;;;;;;;;;;;;;;;;;10335030;28;20314;-63
2021/07/02 22:11:54;;;;;;;;;;;;;;;;;;10316900;28;19943;-62
2021/07/02 22:16:51;;;;;;;;;;;;;;;;;;10310364;28;20000;-62
2021/07/02 22:21:48;;;;;;;;;;;;;;;;;;10312387;28;19939;-62
2021/07/02 22:26:45;;;;;;;;;;;;;;;;;;10319248;28;19919;-63
2021/07/02 22:31:43;;;;;;;;;;;;;;;;;;10310546;28;19940;-63
2021/07/02 22:36:42;;;;;;;;;;;;;;;;;;10309135;28;19928;-63
2021/07/02 22:41:39;;;;;;;;;;;;;;;;;;10318778;28;19913;-61
2021/07/02 22:46:36;;;;;;;;;;;;;;;;;;10331980;28;19917;-64
2021/07/02 22:51:33;;;;;;;;;;;;;;;;;;10319063;28;19920;-62
2021/07/02 22:56:31;;;;;;;;;;;;;;;;;;10316643;28;19913;-64
2021/07/02 23:01:28;;;;;;;;;;;;;;;;;;10318398;28;21047;-62
2021/07/02 23:06:25;;;;;;;;;;;;;;;;;;10327977;28;20028;-65
2021/07/02 23:11:23;;;;;;;;;;;;;;;;;;10328625;28;19927;-63
2021/07/02 23:16:20;;;;;;;;;;;;;;;;;;10326822;28;19916;-65
2021/07/02 23:21:17;;;;;;;;;;;;;;;;;;10326266;28;19917;-64
2021/07/02 23:26:14;;;;;;;;;;;;;;;;;;10332661;28;19913;-65
2021/07/02 23:31:12;;;;;;;;;;;;;;;;;;10317348;28;19960;-63
2021/07/02 23:36:09;;;;;;;;;;;;;;;;;;10315530;28;20000;-66
2021/07/02 23:41:06;;;;;;;;;;;;;;;;;;10332999;28;20343;-62
2021/07/02 23:46:03;;;;;;;;;;;;;;;;;;10330149;28;20321;-66
2021/07/02 23:51:01;;;;;;;;;;;;;;;;;;10314817;28;19943;-66
2021/07/02 23:55:58;;;;;;;;;;;;;;;;;;10335362;28;19912;-65
